CA53 weather

Tews Field
Redding, California, United States

Public forecast

Using degrees Fahrenheit for public forecast. Weather courtesy of forecast.io.

Closest aviation weather report (METAR) to Tews Field

Closest report is Redding Municipal Airport, 10.1 nm (18.6 km) SSE. Retrieved 2019/10/14 01:53 UTC (1 hour ago):

KRDD 140153Z 17004KT 10SM CLR 21/M02 A2981 RMK AO2 SLP092 T02061022

Closest aviation forecast (TAF) to Tews Field

Closest forecast is Redding Municipal Airport, 10.1 nm (18.6 km) SSE. Retrieved 2019-10-14 00:27 UTC (2 hours ago):

TAF KRDD 132324Z 1400/1424 VRB04KT P6SM SKC